Clarksville City, Texas
Current Conditions -  °F | °C
As of 9:53 PM on Saturday 22 Nov 2014 (Local Time) from KGGG Reporting Station
Moderate Rain Moderate Rain  
Wind Chill: 62°   Ceiling: 600
Heat Index: 62°   Visibility: 6mi
Dew Point: 59°   Wind: 12mph
Humidity: 90%   Direction: 110°ESE
Pressure: 29.79"   Gusts: NA
Location:  32.5368°N, 94.8683°W
Report Text: KGGG 230353Z AUTO 11010KT 6SM RA BR BKN006 BKN012 OVC070 17/15 A2979 RMK AO2 LTG DSNT N-E SLP084 P0014 T01670150 TSNO
Loading
Personal Weather Stations






























Interactive Weather Map New forecast layout! Learn more

10-Day Weather Forecast

Advertisements
Track Severe Weather on mobile